Time;durP1;ratioP1;P1;durP2;ratioP2;P2;SDS_P1;SDS_P2;PMS_P1;PMS_P2;Temp;Humidity;BMP_temperature;BMP_pressure;BME280_temperature;BME280_humidity;BME280_pressure;Samples;Min_cycle;Max_cycle;Signal;HPM_P1;HPM_P2
2021/12/13 00:01:39;;;;;;;23.95;20.60;;;;;;;-146.48;100.00;60459.00;5327511;28;20031;-70
2021/12/13 00:04:19;;;;;;;25.67;20.92;;;;;;;-146.48;100.00;60459.00;5326164;28;20102;-70
2021/12/13 00:06:58;;;;;;;26.38;18.65;;;;;;;-146.48;100.00;60459.00;5326531;28;20131;-70
2021/12/13 00:09:33;;;;;;;24.95;19.20;;;;;;;-146.48;100.00;60459.00;5326963;28;20020;-70
2021/12/13 00:12:07;;;;;;;24.85;19.95;;;;;;;-146.48;100.00;60459.00;5325792;28;20501;-70
2021/12/13 00:14:49;;;;;;;26.08;19.80;;;;;;;-146.48;100.00;60459.00;5326388;28;20111;-71
2021/12/13 00:17:27;;;;;;;23.20;18.38;;;;;;;-146.48;100.00;60459.00;5327020;28;20367;-71
2021/12/13 00:20:36;;;;;;;28.65;19.00;;;;;;;-146.48;100.00;60459.00;5325660;28;20145;-71
2021/12/13 00:23:20;;;;;;;24.15;18.25;;;;;;;-146.48;100.00;60459.00;5327140;28;20054;-72
2021/12/13 00:25:56;;;;;;;24.75;16.90;;;;;;;-146.48;100.00;60459.00;5325935;28;20378;-71
2021/12/13 00:28:34;;;;;;;22.25;16.67;;;;;;;-146.48;100.00;60459.00;5327249;28;20540;-72
2021/12/13 00:31:20;;;;;;;23.40;17.40;;;;;;;-146.48;100.00;60459.00;5326722;28;20107;-71
2021/12/13 00:34:11;;;;;;;22.00;16.73;;;;;;;-146.48;100.00;60459.00;5325778;28;20436;-71
2021/12/13 00:36:47;;;;;;;20.17;17.02;;;;;;;-146.48;100.00;60459.00;5326932;28;20028;-71
2021/12/13 00:39:29;;;;;;;20.85;16.42;;;;;;;-146.48;100.00;60459.00;5326125;28;20027;-71
2021/12/13 00:42:04;;;;;;;23.20;16.95;;;;;;;-146.48;100.00;60459.00;5326074;28;20031;-71
2021/12/13 00:44:41;;;;;;;23.00;17.13;;;;;;;-146.48;100.00;60459.00;5326740;28;20020;-71
2021/12/13 00:47:21;;;;;;;22.42;17.98;;;;;;;-146.48;100.00;60459.00;5326308;28;20051;-71
2021/12/13 00:50:00;;;;;;;22.88;17.90;;;;;;;-146.48;100.00;60459.00;5325906;28;20126;-71
2021/12/13 00:52:34;;;;;;;22.27;16.95;;;;;;;-146.48;100.00;60459.00;5326669;28;20370;-71
2021/12/13 00:55:18;;;;;;;21.90;17.10;;;;;;;-146.48;100.00;60459.00;5325016;28;20027;-71
2021/12/13 00:58:04;;;;;;;22.95;17.70;;;;;;;-146.48;100.00;60459.00;5326111;28;20031;-71
2021/12/13 01:00:42;;;;;;;24.90;16.75;;;;;;;-146.48;100.00;60459.00;5325978;28;20490;-71
2021/12/13 01:03:18;;;;;;;22.85;18.02;;;;;;;-146.48;100.00;60459.00;5326505;28;20028;-71
2021/12/13 01:05:58;;;;;;;25.23;17.98;;;;;;;-146.48;100.00;60459.00;5325783;28;20034;-71
2021/12/13 01:08:48;;;;;;;24.50;18.52;;;;;;;-146.48;100.00;60459.00;5325470;28;20031;-71
2021/12/13 01:11:56;;;;;;;25.50;18.27;;;;;;;-146.48;100.00;60459.00;5326294;28;20478;-71
2021/12/13 01:14:36;;;;;;;25.15;18.42;;;;;;;-146.48;100.00;60459.00;5321512;28;20078;-70
2021/12/13 01:17:14;;;;;;;22.90;18.08;;;;;;;-146.48;100.00;60459.00;5325985;28;20161;-71
2021/12/13 01:19:59;;;;;;;26.92;18.10;;;;;;;-146.48;100.00;60459.00;5325631;28;20028;-71
2021/12/13 01:25:59;;;;;;;24.27;18.20;;;;;;;-146.48;100.00;60459.00;5326310;28;20035;-71
2021/12/13 01:28:38;;;;;;;30.38;18.48;;;;;;;-146.48;100.00;60459.00;5324971;28;20070;-71
2021/12/13 01:31:24;;;;;;;31.40;19.80;;;;;;;-146.48;100.00;60459.00;5326027;28;20035;-71
2021/12/13 01:33:57;;;;;;;29.55;18.88;;;;;;;-146.48;100.00;60459.00;5325308;28;20482;-71
2021/12/13 01:36:43;;;;;;;28.58;19.42;;;;;;;-146.48;100.00;60459.00;5324944;28;20023;-71
2021/12/13 01:39:20;;;;;;;28.80;19.67;;;;;;;-146.48;100.00;60459.00;5325733;28;20028;-71
2021/12/13 01:42:20;;;;;;;29.52;19.17;;;;;;;-146.48;100.00;60459.00;5325139;28;20055;-70
2021/12/13 01:44:54;;;;;;;27.88;19.17;;;;;;;-146.48;100.00;60459.00;5322770;28;20036;-69
2021/12/13 01:47:30;;;;;;;30.73;19.83;;;;;;;-146.48;100.00;60459.00;5325577;28;20047;-69
2021/12/13 01:50:10;;;;;;;27.92;19.63;;;;;;;-146.48;100.00;60459.00;5324067;28;20509;-70
2021/12/13 01:52:42;;;;;;;28.67;19.42;;;;;;;-146.48;100.00;60459.00;5324915;28;20491;-70
2021/12/13 01:55:21;;;;;;;31.13;20.45;;;;;;;-146.48;100.00;60459.00;5325302;28;20036;-69
2021/12/13 02:01:09;;;;;;;30.60;19.98;;;;;;;-146.48;100.00;60459.00;5324894;28;20435;-70
2021/12/13 02:03:54;;;;;;;30.10;21.15;;;;;;;-146.48;100.00;60459.00;5323361;28;20080;-69
2021/12/13 02:06:39;;;;;;;29.60;20.15;;;;;;;-146.48;100.00;60459.00;5325389;28;20023;-70
2021/12/13 02:09:21;;;;;;;31.13;20.83;;;;;;;-146.48;100.00;60459.00;5325198;28;20509;-70
2021/12/13 02:11:56;;;;;;;30.20;21.92;;;;;;;-146.48;100.00;60459.00;5323746;28;20026;-70
2021/12/13 02:14:31;;;;;;;30.73;21.95;;;;;;;-146.48;100.00;60459.00;5324821;28;20106;-69
2021/12/13 02:17:15;;;;;;;29.38;21.45;;;;;;;-146.48;100.00;60459.00;5324472;28;20436;-70
2021/12/13 02:20:00;;;;;;;30.25;21.40;;;;;;;-146.48;100.00;60459.00;5324379;28;20118;-70
2021/12/13 02:22:36;;;;;;;32.55;21.73;;;;;;;-146.48;100.00;60459.00;5324886;28;20034;-70
2021/12/13 02:25:10;;;;;;;32.38;22.70;;;;;;;-146.48;100.00;60459.00;5323619;28;20020;-69
2021/12/13 02:27:47;;;;;;;33.70;21.67;;;;;;;-146.48;100.00;60459.00;5324042;28;20016;-70
2021/12/13 02:30:29;;;;;;;33.58;21.80;;;;;;;-146.48;100.00;60459.00;5324690;28;20370;-70
2021/12/13 02:33:03;;;;;;;33.47;22.83;;;;;;;-146.48;100.00;60459.00;5323222;28;20092;-70
2021/12/13 02:35:38;;;;;;;30.27;22.73;;;;;;;-146.48;100.00;60459.00;5324424;28;20032;-70
2021/12/13 02:38:11;;;;;;;30.25;21.67;;;;;;;-146.48;100.00;60459.00;5324736;28;20051;-69
2021/12/13 02:40:43;;;;;;;31.15;22.73;;;;;;;-146.48;100.00;60459.00;5323043;28;20466;-70
2021/12/13 02:43:19;;;;;;;33.92;22.52;;;;;;;-146.48;100.00;60459.00;5324367;28;20035;-70
2021/12/13 02:45:54;;;;;;;32.70;22.52;;;;;;;-146.48;100.00;60459.00;5322971;28;20032;-69
2021/12/13 02:48:32;;;;;;;34.35;23.60;;;;;;;-146.48;100.00;60459.00;5324544;28;20084;-70
2021/12/13 02:51:09;;;;;;;29.67;22.23;;;;;;;-146.48;100.00;60459.00;5323656;28;20050;-69
2021/12/13 02:53:45;;;;;;;37.08;23.35;;;;;;;-146.48;100.00;60459.00;5322858;28;20070;-70
2021/12/13 02:56:23;;;;;;;30.63;21.75;;;;;;;-146.48;100.00;60459.00;5324187;28;20044;-70
2021/12/13 02:58:56;;;;;;;35.78;23.13;;;;;;;-146.48;100.00;60459.00;5323830;28;20023;-70
2021/12/13 03:01:33;;;;;;;31.08;22.25;;;;;;;-146.48;100.00;60459.00;5323400;28;20083;-70
2021/12/13 03:04:09;;;;;;;31.95;22.25;;;;;;;-146.48;100.00;60459.00;5323423;28;20024;-70
2021/12/13 03:07:00;;;;;;;32.42;21.85;;;;;;;-146.48;100.00;60459.00;5322470;28;20023;-71
2021/12/13 03:09:34;;;;;;;32.20;22.10;;;;;;;-146.48;100.00;60459.00;5324353;28;20027;-70
2021/12/13 03:12:14;;;;;;;30.63;21.83;;;;;;;-146.48;100.00;60459.00;5323392;28;20023;-70
2021/12/13 03:14:49;;;;;;;30.30;21.33;;;;;;;-146.48;100.00;60459.00;5321577;28;20092;-70
2021/12/13 03:17:24;;;;;;;31.08;22.80;;;;;;;-146.48;100.00;60459.00;5324262;28;20027;-70
2021/12/13 03:20:14;;;;;;;33.38;21.80;;;;;;;-146.48;100.00;60459.00;5323626;28;20439;-70
2021/12/13 03:23:10;;;;;;;33.80;21.90;;;;;;;-146.48;100.00;60459.00;5322631;28;20024;-69
2021/12/13 03:26:22;;;;;;;29.73;21.58;;;;;;;-146.48;100.00;60459.00;5323669;28;20027;-70
2021/12/13 03:29:20;;;;;;;31.75;20.95;;;;;;;-146.48;100.00;60459.00;5292120;28;20502;-70
2021/12/13 03:31:55;;;;;;;30.08;21.63;;;;;;;-146.48;100.00;60459.00;5323552;28;20039;-70
2021/12/13 03:34:35;;;;;;;33.13;22.15;;;;;;;-146.48;100.00;60459.00;5323908;28;20019;-70
2021/12/13 03:37:08;;;;;;;31.95;21.90;;;;;;;-146.48;100.00;60459.00;5323207;28;20114;-70
2021/12/13 03:39:44;;;;;;;33.58;21.73;;;;;;;-146.48;100.00;60459.00;5323209;28;20043;-70
2021/12/13 03:42:22;;;;;;;31.50;22.45;;;;;;;-146.48;100.00;60459.00;5323234;28;20111;-70
2021/12/13 03:44:56;;;;;;;31.23;22.42;;;;;;;-146.48;100.00;60459.00;5323228;28;20110;-70
2021/12/13 03:47:34;;;;;;;31.17;21.67;;;;;;;-146.48;100.00;60459.00;5323693;28;20390;-70
2021/12/13 03:50:15;;;;;;;30.90;20.52;;;;;;;-146.48;100.00;60459.00;5322278;28;20542;-70
2021/12/13 03:52:50;;;;;;;30.98;21.23;;;;;;;-146.48;100.00;60459.00;5323035;28;20039;-70
2021/12/13 03:55:26;;;;;;;29.02;21.85;;;;;;;-146.48;100.00;60459.00;5323599;28;20043;-70
2021/12/13 03:58:03;;;;;;;32.70;21.20;;;;;;;-146.48;100.00;60459.00;5322562;28;20032;-70
2021/12/13 04:00:49;;;;;;;31.20;21.35;;;;;;;-146.48;100.00;60459.00;5323664;28;20061;-70
2021/12/13 04:03:24;;;;;;;30.60;20.83;;;;;;;-146.48;100.00;60459.00;5322827;28;20028;-70
2021/12/13 04:05:57;;;;;;;29.98;20.65;;;;;;;-146.48;100.00;60459.00;5323059;28;20028;-70
2021/12/13 04:08:29;;;;;;;30.63;20.48;;;;;;;-146.48;100.00;60459.00;5323536;28;20020;-70
2021/12/13 04:11:07;;;;;;;30.60;20.58;;;;;;;-146.48;100.00;60459.00;5322265;28;20518;-70
2021/12/13 04:13:44;;;;;;;31.27;21.00;;;;;;;-146.48;100.00;60459.00;5322974;28;20053;-70
2021/12/13 04:16:29;;;;;;;29.70;20.35;;;;;;;-146.48;100.00;60459.00;5323609;28;20100;-69
2021/12/13 04:19:11;;;;;;;29.75;19.90;;;;;;;-146.48;100.00;60459.00;5322146;28;20028;-70
2021/12/13 04:21:48;;;;;;;31.95;21.00;;;;;;;-146.48;100.00;60459.00;5323168;28;20038;-70
2021/12/13 04:24:26;;;;;;;30.17;20.85;;;;;;;-146.48;100.00;60459.00;5322912;28;20093;-69
2021/12/13 04:27:09;;;;;;;30.15;20.70;;;;;;;-146.48;100.00;60459.00;5325955;28;20077;-70
2021/12/13 04:29:42;;;;;;;28.70;19.05;;;;;;;-146.48;100.00;60459.00;5326413;28;20555;-70
2021/12/13 04:32:24;;;;;;;30.67;20.02;;;;;;;-146.48;100.00;60459.00;5326517;28;20470;-70
2021/12/13 04:34:59;;;;;;;29.80;20.60;;;;;;;-146.48;100.00;60459.00;5326557;28;20058;-69
2021/12/13 04:37:41;;;;;;;31.92;20.15;;;;;;;-146.48;100.00;60459.00;5327141;28;20043;-70
2021/12/13 04:40:35;;;;;;;32.38;19.40;;;;;;;-146.48;100.00;60459.00;5326129;28;20081;-70
2021/12/13 04:43:18;;;;;;;31.25;19.20;;;;;;;-146.48;100.00;60459.00;5326481;28;20035;-69
2021/12/13 04:45:58;;;;;;;30.20;19.63;;;;;;;-146.48;100.00;60459.00;5325507;28;20128;-70
2021/12/13 04:48:33;;;;;;;28.70;19.75;;;;;;;-146.48;100.00;60459.00;5326750;28;20020;-70
2021/12/13 04:51:10;;;;;;;28.55;19.05;;;;;;;-146.48;100.00;60459.00;5325957;28;20478;-70
2021/12/13 04:53:47;;;;;;;29.15;19.50;;;;;;;-146.48;100.00;60459.00;5325360;28;20148;-70
2021/12/13 04:56:25;;;;;;;25.60;18.35;;;;;;;-146.48;100.00;60459.00;5326623;28;20031;-70
2021/12/13 04:59:00;;;;;;;24.60;17.92;;;;;;;-146.48;100.00;60459.00;5325480;28;20116;-70
2021/12/13 05:01:32;;;;;;;28.95;19.52;;;;;;;-146.48;100.00;60459.00;5326598;28;20386;-70
2021/12/13 05:04:07;;;;;;;25.17;18.23;;;;;;;-146.48;100.00;60459.00;5325793;28;20074;-70
2021/12/13 05:06:40;;;;;;;27.80;18.75;;;;;;;-146.48;100.00;60459.00;5325058;28;20039;-70
2021/12/13 05:09:16;;;;;;;27.73;18.30;;;;;;;-146.48;100.00;60459.00;5326331;28;20020;-70
2021/12/13 05:11:53;;;;;;;24.38;16.88;;;;;;;-146.48;100.00;60459.00;5325936;28;20035;-70
2021/12/13 05:14:38;;;;;;;26.10;18.08;;;;;;;-146.48;100.00;60459.00;5325506;28;20434;-69
2021/12/13 05:17:37;;;;;;;25.08;17.13;;;;;;;-146.48;100.00;60459.00;5326098;28;20023;-70
2021/12/13 05:20:20;;;;;;;26.23;16.85;;;;;;;-146.48;100.00;60459.00;5325358;28;20027;-70
2021/12/13 05:22:59;;;;;;;25.60;17.30;;;;;;;-146.48;100.00;60459.00;5325735;28;20109;-70
2021/12/13 05:25:37;;;;;;;;;;;;;;;-146.48;100.00;60459.00;5326577;28;20032;-69
2021/12/13 05:28:18;;;;;;;24.27;16.30;;;;;;;-146.48;100.00;60459.00;5325139;28;19911;-70
2021/12/13 05:30:57;;;;;;;26.38;15.82;;;;;;;-146.48;100.00;60459.00;5325509;28;20421;-69
2021/12/13 05:33:30;;;;;;;;;;;;;;;-146.48;100.00;60459.00;5326316;28;20058;-70
2021/12/13 05:36:24;;;;;;;23.15;15.80;;;;;;;-146.48;100.00;60459.00;5324364;28;19943;-69
2021/12/13 05:39:16;;;;;;;23.73;15.38;;;;;;;-146.48;100.00;60459.00;5324860;28;20103;-69
2021/12/13 05:42:04;;;;;;;25.02;15.95;;;;;;;-146.48;100.00;60459.00;5324374;28;20022;-69
2021/12/13 05:44:42;;;;;;;24.73;15.40;;;;;;;-146.48;100.00;60459.00;5325601;28;20063;-69
2021/12/13 05:47:21;;;;;;;22.52;15.23;;;;;;;-146.48;100.00;60459.00;5325716;28;20382;-69
2021/12/13 05:49:53;;;;;;;23.50;15.80;;;;;;;-146.48;100.00;60459.00;5323799;28;20047;-69
2021/12/13 05:52:34;;;;;;;20.35;14.45;;;;;;;-146.48;100.00;60459.00;5325663;28;20512;-71
2021/12/13 05:55:12;;;;;;;23.00;15.32;;;;;;;-146.48;100.00;60459.00;5324640;28;20058;-69
2021/12/13 05:57:50;;;;;;;21.20;14.90;;;;;;;-146.48;100.00;60459.00;5324735;28;20328;-69
2021/12/13 06:00:32;;;;;;;20.45;14.30;;;;;;;-146.48;100.00;60459.00;5325461;28;20043;-69
2021/12/13 06:03:08;;;;;;;20.55;14.25;;;;;;;-146.48;100.00;60459.00;5323857;28;20031;-70
2021/12/13 06:05:44;;;;;;;20.35;14.15;;;;;;;-146.48;100.00;60459.00;5324563;28;20034;-71
2021/12/13 06:08:20;;;;;;;22.92;13.68;;;;;;;-146.48;100.00;60459.00;5325499;28;20046;-71
2021/12/13 06:10:52;;;;;;;21.08;14.23;;;;;;;-146.48;100.00;60459.00;5323907;28;20480;-70
2021/12/13 06:13:43;;;;;;;20.00;14.20;;;;;;;-146.48;100.00;60459.00;5325079;28;20032;-69
2021/12/13 06:16:40;;;;;;;19.35;13.27;;;;;;;-146.48;100.00;60459.00;5324722;28;20050;-71
2021/12/13 06:19:25;;;;;;;20.17;13.82;;;;;;;-146.48;100.00;60459.00;5317411;28;20146;-71
2021/12/13 06:22:14;;;;;;;23.95;12.88;;;;;;;-146.48;100.00;60459.00;5324163;28;20487;-71
2021/12/13 06:24:54;;;;;;;20.17;13.50;;;;;;;-146.48;100.00;60459.00;5323691;28;20467;-69
2021/12/13 06:27:39;;;;;;;19.70;12.70;;;;;;;-146.48;100.00;60459.00;5324891;28;20592;-69
2021/12/13 06:30:23;;;;;;;18.98;12.38;;;;;;;-146.48;100.00;60459.00;5324762;28;20034;-69
2021/12/13 06:33:00;;;;;;;19.55;13.10;;;;;;;-146.48;100.00;60459.00;5324116;28;20032;-69
2021/12/13 06:35:40;;;;;;;17.48;12.77;;;;;;;-146.48;100.00;60459.00;5324492;28;20035;-69
2021/12/13 06:38:20;;;;;;;17.65;12.98;;;;;;;-146.48;100.00;60459.00;5323684;28;20042;-72
2021/12/13 06:41:07;;;;;;;19.85;11.40;;;;;;;-146.48;100.00;60459.00;5323844;28;20042;-69
2021/12/13 06:44:06;;;;;;;17.15;11.55;;;;;;;-146.48;100.00;60459.00;5324253;28;20021;-69
2021/12/13 06:46:43;;;;;;;16.35;11.15;;;;;;;-146.48;100.00;60459.00;5309338;28;20127;-69
2021/12/13 06:49:23;;;;;;;21.85;13.20;;;;;;;-146.48;100.00;60459.00;5324243;28;20039;-69
2021/12/13 06:52:00;;;;;;;;;;;;;;;-146.48;100.00;60459.00;5323261;28;20088;-70
2021/12/13 06:54:45;;;;;;;17.35;11.27;;;;;;;-146.48;100.00;60459.00;5324510;28;20072;-69
2021/12/13 06:57:21;;;;;;;19.52;11.65;;;;;;;-146.48;100.00;60459.00;5324488;28;20059;-69
2021/12/13 06:59:56;;;;;;;15.82;10.75;;;;;;;-146.48;100.00;60459.00;5323069;28;20036;-69
2021/12/13 07:03:03;;;;;;;15.48;10.40;;;;;;;-146.48;100.00;60459.00;5324706;28;20055;-70
2021/12/13 07:05:34;;;;;;;15.63;11.13;;;;;;;-146.48;100.00;60459.00;5319197;28;20039;-70
2021/12/13 07:08:17;;;;;;;13.38;10.38;;;;;;;-146.48;100.00;60459.00;5323905;28;20406;-70
2021/12/13 07:10:51;;;;;;;16.75;10.73;;;;;;;-146.48;100.00;60459.00;5323717;28;20032;-70
2021/12/13 07:13:45;;;;;;;17.88;10.88;;;;;;;-146.48;100.00;60459.00;5323290;28;20100;-70
2021/12/13 07:16:30;;;;;;;15.55;10.95;;;;;;;-146.48;100.00;60459.00;5324062;28;20035;-70
2021/12/13 07:19:18;;;;;;;16.63;10.95;;;;;;;-146.48;100.00;60459.00;5323683;28;20100;-70
2021/12/13 07:22:04;;;;;;;13.77;10.20;;;;;;;-146.48;100.00;60459.00;5322869;28;20020;-70
2021/12/13 07:24:42;;;;;;;16.88;11.60;;;;;;;-146.48;100.00;60459.00;5323875;28;20111;-70
2021/12/13 07:27:27;;;;;;;16.25;11.15;;;;;;;-146.48;100.00;60459.00;5323380;28;20049;-70
2021/12/13 07:30:11;;;;;;;13.88;9.95;;;;;;;-146.48;100.00;60459.00;5323571;28;20023;-69
2021/12/13 07:32:57;;;;;;;17.27;10.85;;;;;;;-146.48;100.00;60459.00;5323196;28;20100;-69
2021/12/13 07:35:40;;;;;;;14.68;10.20;;;;;;;-146.48;100.00;60459.00;5323158;28;20032;-69
2021/12/13 07:38:17;;;;;;;16.10;10.88;;;;;;;-146.48;100.00;60459.00;5323900;28;20156;-69
2021/12/13 07:40:50;;;;;;;13.52;9.95;;;;;;;-146.48;100.00;60459.00;5322295;28;20145;-70
2021/12/13 07:43:26;;;;;;;14.65;10.60;;;;;;;-146.48;100.00;60459.00;5323610;28;20110;-69
2021/12/13 07:45:57;;;;;;;14.80;10.65;;;;;;;-146.48;100.00;60459.00;5323322;28;20367;-69
2021/12/13 07:48:34;;;;;;;15.32;9.93;;;;;;;-146.48;100.00;60459.00;5322951;28;20043;-69
2021/12/13 07:51:29;;;;;;;14.93;10.15;;;;;;;-146.48;100.00;60459.00;5322608;28;20048;-69
2021/12/13 07:54:15;;;;;;;14.35;9.48;;;;;;;-146.48;100.00;60459.00;5322921;28;20024;-70
2021/12/13 07:57:02;;;;;;;16.42;10.38;;;;;;;-146.48;100.00;60459.00;5322034;28;20032;-70
2021/12/13 07:59:37;;;;;;;13.25;9.82;;;;;;;-146.48;100.00;60459.00;5323721;28;20028;-69
2021/12/13 08:02:18;;;;;;;15.07;10.82;;;;;;;-146.48;100.00;60459.00;5326313;28;20023;-69
2021/12/13 08:04:59;;;;;;;13.02;9.93;;;;;;;-146.48;100.00;60459.00;5327316;28;20019;-69
2021/12/13 08:07:41;;;;;;;14.23;10.00;;;;;;;-146.48;100.00;60459.00;5327388;28;20031;-70
2021/12/13 08:10:24;;;;;;;12.93;10.13;;;;;;;-146.48;100.00;60459.00;5326594;28;20035;-70
2021/12/13 08:13:01;;;;;;;14.82;10.63;;;;;;;-146.48;100.00;60459.00;5326857;28;20020;-70
2021/12/13 08:15:37;;;;;;;14.07;10.18;;;;;;;-146.48;100.00;60459.00;5327505;28;20104;-70
2021/12/13 08:18:27;;;;;;;15.43;10.05;;;;;;;-146.48;100.00;60459.00;5326802;28;20072;-70
2021/12/13 08:21:06;;;;;;;15.00;9.85;;;;;;;-146.48;100.00;60459.00;5326653;28;20125;-69
2021/12/13 08:23:44;;;;;;;15.32;9.43;;;;;;;-146.48;100.00;60459.00;5326471;27;20015;-70
2021/12/13 08:26:24;;;;;;;18.63;10.45;;;;;;;-146.48;100.00;60459.00;5347396;27;20390;-69
2021/12/13 08:28:58;;;;;;;12.73;9.32;;;;;;;-146.48;100.00;60459.00;5347712;27;20027;-70
2021/12/13 08:31:35;;;;;;;12.52;8.93;;;;;;;-146.48;100.00;60459.00;5347514;27;20035;-70
2021/12/13 08:34:11;;;;;;;13.40;8.98;;;;;;;-146.48;100.00;60459.00;5347675;27;20072;-70
2021/12/13 08:36:47;;;;;;;13.43;10.20;;;;;;;-146.48;100.00;60459.00;5347645;27;20038;-70
2021/12/13 08:39:31;;;;;;;11.15;9.20;;;;;;;-146.48;100.00;60459.00;5347672;27;20189;-70
2021/12/13 08:42:15;;;;;;;12.50;8.52;;;;;;;-146.48;100.00;60459.00;5347749;27;20020;-69
2021/12/13 08:45:16;;;;;;;13.50;9.38;;;;;;;-146.48;100.00;60459.00;5346916;27;20054;-70
2021/12/13 08:47:54;;;;;;;11.98;9.75;;;;;;;-146.48;100.00;60459.00;5341374;27;20027;-69
2021/12/13 08:51:01;;;;;;;11.13;9.07;;;;;;;-146.48;100.00;60459.00;5347693;27;20460;-69
2021/12/13 08:53:37;;;;;;;13.15;10.20;;;;;;;-146.48;100.00;60459.00;5290280;27;20031;-70
2021/12/13 08:56:12;;;;;;;10.95;8.32;;;;;;;-146.48;100.00;60459.00;5347744;27;20023;-69
2021/12/13 08:59:18;;;;;;;12.82;9.07;;;;;;;-146.48;100.00;60459.00;5346328;27;20359;-69
2021/12/13 09:01:54;;;;;;;13.63;10.10;;;;;;;-146.48;100.00;60459.00;5344903;27;20084;-69
2021/12/13 09:04:35;;;;;;;13.13;9.40;;;;;;;-146.48;100.00;60459.00;5346612;27;20527;-70
2021/12/13 09:07:10;;;;;;;12.18;9.38;;;;;;;-146.48;100.00;60459.00;5345304;27;20032;-70
2021/12/13 09:09:45;;;;;;;14.02;9.73;;;;;;;-146.48;100.00;60459.00;5345763;27;20123;-69
2021/12/13 09:12:33;;;;;;;12.88;9.30;;;;;;;-146.48;100.00;60459.00;5344159;27;20117;-70
2021/12/13 09:15:17;;;;;;;12.52;9.55;;;;;;;-146.48;100.00;60459.00;5344644;27;20031;-69
2021/12/13 09:17:51;;;;;;;12.70;9.50;;;;;;;-146.48;100.00;60459.00;5345696;27;20414;-70
2021/12/13 09:20:29;;;;;;;11.60;8.73;;;;;;;-146.48;100.00;60459.00;5345300;27;20015;-70
2021/12/13 09:23:15;;;;;;;12.88;9.55;;;;;;;-146.48;100.00;60459.00;5346047;27;20711;-69
2021/12/13 09:25:53;;;;;;;11.57;8.75;;;;;;;-146.48;100.00;60459.00;5345274;27;20035;-70
2021/12/13 09:28:29;;;;;;;11.80;8.65;;;;;;;-146.48;100.00;60459.00;5344886;27;20031;-71
2021/12/13 09:31:11;;;;;;;11.75;9.50;;;;;;;-146.48;100.00;60459.00;5345399;27;20061;-69
2021/12/13 09:33:51;;;;;;;11.68;8.95;;;;;;;-146.48;100.00;60459.00;5344641;27;20034;-69
2021/12/13 09:36:27;;;;;;;13.05;8.57;;;;;;;-146.48;100.00;60459.00;5345486;27;20027;-69
2021/12/13 09:39:04;;;;;;;11.75;8.80;;;;;;;-146.48;100.00;60459.00;5345162;27;20104;-70
2021/12/13 09:41:52;;;;;;;11.18;8.80;;;;;;;-146.48;100.00;60459.00;5344632;27;20386;-70
2021/12/13 09:44:39;;;;;;;15.82;8.77;;;;;;;-146.48;100.00;60459.00;5344859;27;20030;-70
2021/12/13 09:47:15;;;;;;;10.00;7.78;;;;;;;-146.48;100.00;60459.00;5345616;27;20054;-71
2021/12/13 09:50:09;;;;;;;10.07;8.25;;;;;;;-146.48;100.00;60459.00;5343980;27;20051;-71
2021/12/13 09:52:47;;;;;;;11.02;8.63;;;;;;;-146.48;100.00;60459.00;5343504;27;20482;-72
2021/12/13 09:55:42;;;;;;;9.55;7.65;;;;;;;-146.48;100.00;60459.00;5343961;27;20401;-71
2021/12/13 09:58:17;;;;;;;11.35;7.45;;;;;;;-146.48;100.00;60459.00;5344394;27;20036;-71
2021/12/13 10:01:11;;;;;;;11.63;7.75;;;;;;;-146.48;100.00;60459.00;5344523;27;20088;-70
2021/12/13 10:03:58;;;;;;;11.10;7.72;;;;;;;-146.48;100.00;60459.00;5343624;27;20027;-70
2021/12/13 10:06:35;;;;;;;12.15;7.95;;;;;;;-146.48;100.00;60459.00;5346538;27;20039;-71
2021/12/13 10:09:06;;;;;;;12.35;7.40;;;;;;;-146.48;100.00;60459.00;5345136;27;20027;-71
2021/12/13 10:11:50;;;;;;;10.75;7.88;;;;;;;-146.48;100.00;60459.00;5345802;27;20394;-72
2021/12/13 10:14:30;;;;;;;9.30;7.32;;;;;;;-146.48;100.00;60459.00;5346512;27;20088;-70
2021/12/13 10:17:03;;;;;;;9.23;6.43;;;;;;;-146.48;100.00;60459.00;5345102;27;20035;-71
2021/12/13 10:19:41;;;;;;;8.00;6.32;;;;;;;-146.48;100.00;60459.00;5346304;27;20042;-71
2021/12/13 10:22:16;;;;;;;7.25;5.50;;;;;;;-146.48;100.00;60459.00;5346468;27;20091;-71
2021/12/13 10:24:56;;;;;;;8.63;5.93;;;;;;;-146.48;100.00;60459.00;5344674;27;20027;-71
2021/12/13 10:27:27;;;;;;;9.77;5.72;;;;;;;-146.48;100.00;60459.00;5346196;27;20019;-72
2021/12/13 10:30:04;;;;;;;7.22;5.28;;;;;;;-146.48;100.00;60459.00;5344536;27;20034;-71
2021/12/13 10:32:38;;;;;;;7.90;5.32;;;;;;;-146.48;100.00;60459.00;5345987;27;20114;-74
2021/12/13 10:35:17;;;;;;;8.05;5.53;;;;;;;-146.48;100.00;60459.00;5345876;27;20085;-72
2021/12/13 10:37:54;;;;;;;6.65;4.80;;;;;;;-146.48;100.00;60459.00;5344647;27;20118;-71
2021/12/13 10:40:30;;;;;;;6.55;4.43;;;;;;;-146.48;100.00;60459.00;5344946;27;20092;-71
2021/12/13 10:43:10;;;;;;;7.28;4.88;;;;;;;-146.48;100.00;60459.00;5344468;27;20120;-71
2021/12/13 10:45:56;;;;;;;5.57;4.68;;;;;;;-146.48;100.00;60459.00;5344551;27;20031;-71
2021/12/13 10:48:31;;;;;;;5.22;4.50;;;;;;;-146.48;100.00;60459.00;5345794;27;20023;-71
2021/12/13 10:51:12;;;;;;;7.25;5.38;;;;;;;-146.48;100.00;60459.00;5344044;27;20122;-71
2021/12/13 10:53:46;;;;;;;6.50;5.15;;;;;;;-146.48;100.00;60459.00;5344338;27;20037;-71
2021/12/13 10:56:27;;;;;;;6.57;4.40;;;;;;;-146.48;100.00;60459.00;5344780;27;20034;-70
2021/12/13 10:59:05;;;;;;;6.85;4.65;;;;;;;-146.48;100.00;60459.00;5344188;27;20023;-70
2021/12/13 11:01:40;;;;;;;5.45;4.10;;;;;;;-146.48;100.00;60459.00;5345238;27;20035;-71
2021/12/13 11:04:16;;;;;;;6.18;4.25;;;;;;;-146.48;100.00;60459.00;5345574;27;20027;-71
2021/12/13 11:06:49;;;;;;;5.40;4.47;;;;;;;-146.48;100.00;60459.00;5344294;27;20027;-71
2021/12/13 11:09:24;;;;;;;5.22;4.72;;;;;;;-146.48;100.00;60459.00;5344941;27;20031;-73
2021/12/13 11:12:00;;;;;;;5.65;4.47;;;;;;;-146.48;100.00;60459.00;5343998;27;20027;-71
2021/12/13 11:14:35;;;;;;;5.90;4.80;;;;;;;-146.48;100.00;60459.00;5345446;27;20059;-71
2021/12/13 11:17:10;;;;;;;5.95;4.10;;;;;;;-146.48;100.00;60459.00;5344735;27;20030;-76
2021/12/13 11:19:47;;;;;;;5.35;4.53;;;;;;;-146.48;100.00;60459.00;5343858;28;20119;-74
2021/12/13 11:22:25;;;;;;;4.63;4.00;;;;;;;-146.48;100.00;60459.00;5345252;27;20478;-70
2021/12/13 11:25:04;;;;;;;6.32;4.15;;;;;;;-146.48;100.00;60459.00;5343775;28;20031;-71
2021/12/13 11:27:36;;;;;;;4.80;3.90;;;;;;;-146.48;100.00;60459.00;5343567;28;20027;-71
2021/12/13 11:30:13;;;;;;;4.93;4.05;;;;;;;-146.48;100.00;60459.00;5344599;28;20418;-70
2021/12/13 11:32:57;;;;;;;4.63;4.10;;;;;;;-146.48;100.00;60459.00;5343394;27;20024;-71
2021/12/13 11:36:06;;;;;;;4.75;3.70;;;;;;;-146.48;100.00;60459.00;5345651;27;20038;-70
2021/12/13 11:39:17;;;;;;;5.70;3.92;;;;;;;-146.48;100.00;60459.00;5349161;27;20035;-71
2021/12/13 11:42:13;;;;;;;4.55;3.30;;;;;;;-146.48;100.00;60459.00;5348372;27;20027;-71
2021/12/13 11:45:12;;;;;;;4.25;3.25;;;;;;;-146.48;100.00;60459.00;5349090;27;20054;-70
2021/12/13 11:48:02;;;;;;;;;;;;;;;-146.48;100.00;60459.00;5348675;27;20030;-71
2021/12/13 11:51:11;;;;;;;4.30;3.13;;;;;;;-146.48;100.00;60459.00;5349042;27;19945;-71
2021/12/13 11:53:53;;;;;;;6.10;3.05;;;;;;;-146.48;100.00;60459.00;5348846;27;20462;-71
2021/12/13 11:56:52;;;;;;;5.50;3.63;;;;;;;-146.48;100.00;60459.00;5348774;27;20027;-71
2021/12/13 12:00:05;;;;;;;3.40;2.78;;;;;;;-146.48;100.00;60459.00;5349159;27;20466;-71
2021/12/13 12:03:25;;;;;;;5.28;2.70;;;;;;;-146.48;100.00;60459.00;5329759;27;20061;-70
2021/12/13 12:06:27;;;;;;;4.47;3.40;;;;;;;-146.48;100.00;60459.00;5255128;27;20045;-71
2021/12/13 12:09:23;;;;;;;6.40;2.60;;;;;;;-146.48;100.00;60459.00;5347652;27;20389;-71